EGLL

London Heathrow Airport

London, United Kingdom
TAF EGLL 181700Z 1818/1924 17014KT 9999 BKN018 TEMPO 1818/1822 16018G28KT 6000 RA BKN012 PROB30 TEMPO 1818/1822 3500 +RA BKN008 BECMG 1820/1823 23008KT SCT030 TEMPO 1901/1910 7000 SHRA PROB30 TEMPO 1903/1909 4000 +SHRA BKN014CB PROB40 TEMPO 1914/1922 7000 SHRA
Issued Valid From Valid To
Dec-18 @ 17:00 UTC
(6 hours ago)
Dec-18 @ 18:00 UTC
(5 hours ago)
Dec-20 @ 00:00 UTC
(-1 days ago)
Expired Click to View Dec-18 @ 18:00 to Dec-18 @ 20:00
TAF EGLL 181700Z 1818/1924 17014KT 9999 BKN018
Wind Visibility Clouds
170° at 14 knots 10,000+ meters
  • Broken at 1,800' AGL
Expired Click to View Dec-18 @ 18:00 to Dec-18 @ 22:00
PROB30 TEMPO 1818/1822 3500 +RA BKN008
Visibility Clouds Conditions
3,492 meters
  • Broken at 800' AGL
  • Heavy Rain
Expired Click to View Dec-18 @ 18:00 to Dec-18 @ 22:00
TEMPO 1818/1822 16018G28KT 6000 RA BKN012
Wind Visibility Clouds Conditions
160° at 18 knots
 Gusting to 28 knots
6,003 meters
  • Broken at 1,200' AGL
  • Rain
Becoming Dec-18 @ 20:00 to Dec-20 @ 00:00
BECMG 1820/1823 23008KT SCT030
Wind Visibility Clouds
230° at 8 knots 10,000+ meters
  • Scattered at 3,000' AGL
Temporary Dec-19 @ 01:00 to Dec-19 @ 10:00
TEMPO 1901/1910 7000 SHRA
Visibility Conditions
7,001 meters
  • Rain
Temporary  (Probability 30%) Dec-19 @ 03:00 to Dec-19 @ 09:00
PROB30 TEMPO 1903/1909 4000 +SHRA BKN014CB
Visibility Clouds Conditions
4,007 meters
  • Broken at 1,400' AGL
  • Heavy Rain
Temporary  (Probability 40%) Dec-19 @ 14:00 to Dec-19 @ 22:00
PROB40 TEMPO 1914/1922 7000 SHRA
Visibility Conditions
7,001 meters
  • Rain
TAF EGLL 181700Z 1818/1924 17014KT 9999 BKN018 TEMPO 1818/1822 16018G28KT 6000 RA BKN012 PROB30 TEMPO 1818/1822 3500 +RA BKN008 BECMG 1820/1823 23008KT SCT030 TEMPO 1901/1910 7000 SHRA PROB30 TEMPO 1903/1909 4000 +SHRA BKN014CB PROB40 TEMPO 1914/1922 7000 SHRA
Issued Dec-18 @ 17:00 UTC
(6 hours ago)
Valid From Dec-18 @ 18:00 UTC
(5 hours ago)
Valid To Dec-20 @ 00:00 UTC
(-1 days ago)
Dec-18 @ 18:00 - Dec-18 @ 20:00
Wind Visibility
170° at 14 knots 10,000+ meters
Clouds
  • Broken at 1,800' AGL
Dec-18 @ 18:00 - Dec-18 @ 22:00
Clouds
  • Broken at 800' AGL
Conditions
  • Heavy Rain
Dec-18 @ 18:00 - Dec-18 @ 22:00
Wind Visibility
160° at 18 knots
 Gusting to 28 knots
6,003 meters
Clouds
  • Broken at 1,200' AGL
Conditions
  • Rain
Becoming Dec-18 @ 20:00 - Dec-20 @ 00:00
Wind Visibility
230° at 8 knots 10,000+ meters
Clouds
  • Scattered at 3,000' AGL
Temporary Dec-19 @ 01:00 - Dec-19 @ 10:00
Conditions
  • Rain
Probability 30% Temporary Dec-19 @ 03:00 - Dec-19 @ 09:00
Clouds
  • Broken at 1,400' AGL
Conditions
  • Heavy Rain
Probability 40% Temporary Dec-19 @ 14:00 - Dec-19 @ 22:00
Conditions
  • Rain